Time;durP1;ratioP1;P1;durP2;ratioP2;P2;SDS_P1;SDS_P2;PMS_P1;PMS_P2;Temp;Humidity;BMP_temperature;BMP_pressure;BME280_temperature;BME280_humidity;BME280_pressure;Samples;Min_cycle;Max_cycle;Signal;HPM_P1;HPM_P2
2024/01/22 00:01:35;;;;;;;;;9.67;7.00;;;;;10.03;93.06;101355.25;4993669;28;45460;-40
2024/01/22 00:04:00;;;;;;;;;5.00;4.33;;;;;10.08;92.87;101370.81;4993090;28;49321;-40
2024/01/22 00:06:26;;;;;;;;;4.00;3.00;;;;;10.09;93.10;101369.81;4993406;28;45327;-39
2024/01/22 00:08:51;;;;;;;;;6.00;5.00;;;;;10.12;92.87;101349.16;4993353;28;45396;-40
2024/01/22 00:11:16;;;;;;;;;6.33;3.00;;;;;10.16;93.11;101355.91;4993569;28;45260;-39
2024/01/22 00:13:41;;;;;;;;;5.00;2.00;;;;;10.14;93.05;101341.03;4993307;28;45333;-40
2024/01/22 00:16:07;;;;;;;;;3.00;3.00;;;;;10.21;92.88;101361.66;4993160;28;45379;-39
2024/01/22 00:18:32;;;;;;;;;3.00;3.00;;;;;10.24;93.04;101357.91;4993378;28;45494;-40
2024/01/22 00:20:57;;;;;;;;;2.33;2.33;;;;;10.26;93.23;101336.53;4993667;28;45211;-38
2024/01/22 00:23:23;;;;;;;;;4.67;4.67;;;;;10.28;93.13;101319.50;4992846;28;45571;-39
2024/01/22 00:25:50;;;;;;;;;4.33;2.00;;;;;10.36;93.29;101340.09;4993270;28;45461;-41
2024/01/22 00:28:16;;;;;;;;;2.00;2.00;;;;;10.28;93.03;101324.81;4996010;28;45476;-40
2024/01/22 00:30:41;;;;;;;;;3.00;3.00;;;;;10.51;93.21;101309.53;4996230;28;45416;-40
2024/01/22 00:33:07;;;;;;;;;2.00;2.00;;;;;10.54;92.99;101311.09;4995786;28;46161;-39
2024/01/22 00:35:32;;;;;;;;;1.33;1.33;;;;;10.59;92.62;101296.41;4995890;28;45377;-40
2024/01/22 00:37:57;;;;;;;;;5.00;2.33;;;;;10.60;92.79;101266.16;4996287;28;45280;-39
2024/01/22 00:40:23;;;;;;;;;3.00;3.00;;;;;10.62;92.90;101277.53;4996056;28;45363;-40
2024/01/22 00:42:48;;;;;;;;;1.33;1.33;;;;;10.64;92.65;101274.72;4995911;28;47180;-39
2024/01/22 00:45:13;;;;;;;;;3.00;2.00;;;;;10.62;92.76;101264.22;4995975;28;45354;-38
2024/01/22 00:47:39;;;;;;;;;1.00;1.00;;;;;10.64;92.43;101246.28;4995990;28;45544;-39
2024/01/22 00:50:05;;;;;;;;;4.00;2.67;;;;;10.67;92.35;101272.63;4995873;28;45369;-40
2024/01/22 00:52:31;;;;;;;;;6.00;3.00;;;;;10.69;92.19;101254.72;4995694;28;46744;-40
2024/01/22 00:54:56;;;;;;;;;2.00;2.00;;;;;10.65;92.17;101250.63;4995756;28;45347;-38
2024/01/22 00:57:21;;;;;;;;;3.33;3.00;;;;;10.71;92.54;101276.72;4995766;28;45295;-40
2024/01/22 00:59:47;;;;;;;;;2.00;1.67;;;;;10.71;92.27;101292.69;4995897;28;45328;-40
2024/01/22 01:02:12;;;;;;;;;2.00;2.00;;;;;10.77;92.17;101254.03;4995672;28;45353;-40
2024/01/22 01:04:37;;;;;;;;;6.33;2.33;;;;;10.76;91.78;101270.16;4995745;28;45361;-40
2024/01/22 01:07:03;;;;;;;;;2.33;2.00;;;;;10.72;92.09;101273.06;4995737;28;45278;-41
2024/01/22 01:09:29;;;;;;;;;1.67;1.67;;;;;10.66;91.79;101281.59;4995915;28;45505;-39
2024/01/22 01:11:54;;;;;;;;;1.67;1.67;;;;;10.79;91.44;101262.75;4995720;28;46105;-40
2024/01/22 01:14:19;;;;;;;;;1.67;1.67;;;;;10.77;91.68;101271.81;4995646;28;45322;-39
2024/01/22 01:16:45;;;;;;;;;2.00;2.00;;;;;10.74;91.49;101278.25;4995770;28;45381;-40
2024/01/22 01:19:10;;;;;;;;;1.00;1.00;;;;;10.77;91.72;101279.81;5011106;28;45499;-41
2024/01/22 01:21:38;;;;;;;;;5.67;2.00;;;;;10.73;91.45;101258.78;4995568;28;47493;-39
2024/01/22 01:24:03;;;;;;;;;1.00;1.00;;;;;10.77;91.46;101253.19;4995253;27;45299;-39
2024/01/22 01:26:29;;;;;;;;;2.67;2.67;;;;;10.81;91.58;101274.06;4995587;28;45389;-40
2024/01/22 01:28:54;;;;;;;;;2.00;2.00;;;;;10.75;91.10;101263.97;4995722;28;45413;-40
2024/01/22 01:31:19;;;;;;;;;1.00;1.00;;;;;10.84;91.01;101259.66;4995356;28;46731;-39
2024/01/22 01:33:44;;;;;;;;;1.67;1.67;;;;;10.85;91.17;101275.50;4995243;28;45408;-39
2024/01/22 01:36:10;;;;;;;;;5.00;2.00;;;;;10.84;90.99;101265.00;4995555;28;45321;-41
2024/01/22 01:38:36;;;;;;;;;1.67;1.67;;;;;10.87;90.71;101276.22;4995361;28;45431;-39
2024/01/22 01:41:02;;;;;;;;;1.00;1.00;;;;;10.86;90.47;101271.00;4995124;28;46738;-39
2024/01/22 01:43:27;;;;;;;;;4.00;2.00;;;;;10.80;90.37;101277.72;4995063;28;45478;-38
2024/01/22 01:45:53;;;;;;;;;3.00;2.00;;;;;10.89;90.41;101276.06;4995123;28;45368;-40
2024/01/22 01:48:19;;;;;;;;;2.33;2.00;;;;;10.88;90.02;101242.44;4995428;28;45388;-40
2024/01/22 01:50:44;;;;;;;;;1.00;1.00;;;;;10.88;90.09;101280.56;4994895;28;45475;-40
2024/01/22 01:53:10;;;;;;;;;2.00;1.00;;;;;10.89;90.34;101271.59;4995015;28;45298;-40
2024/01/22 01:55:37;;;;;;;;;2.33;2.33;;;;;10.85;90.02;101230.25;4995217;28;45476;-40
2024/01/22 01:58:04;;;;;;;;;3.33;2.00;;;;;10.90;90.30;101248.47;4995270;28;45360;-40
2024/01/22 02:00:30;;;;;;;;;2.00;2.00;;;;;10.89;89.65;101239.66;4994547;28;46323;-39
2024/01/22 02:02:55;;;;;;;;;3.33;3.33;;;;;10.86;89.45;101223.94;4995058;28;45317;-40
2024/01/22 02:05:21;;;;;;;;;2.67;2.67;;;;;10.91;89.17;101211.09;4995171;28;45306;-39
2024/01/22 02:07:47;;;;;;;;;2.00;1.67;;;;;10.94;88.98;101241.88;4995092;28;45460;-40
2024/01/22 02:10:12;;;;;;;;;2.00;2.00;;;;;10.93;89.28;101242.88;4994629;28;46289;-40
2024/01/22 02:12:38;;;;;;;;;2.00;2.00;;;;;10.91;88.83;101226.19;4994730;27;45421;-41
2024/01/22 02:15:04;;;;;;;;;1.00;1.00;;;;;10.95;89.23;101215.13;4994935;28;45337;-38
2024/01/22 02:17:30;;;;;;;;;2.33;1.00;;;;;10.97;88.44;101205.19;4995181;28;45424;-40
2024/01/22 02:19:56;;;;;;;;;1.00;1.00;;;;;10.99;88.33;101231.66;4994456;28;46196;-39
2024/01/22 02:22:21;;;;;;;;;3.33;2.00;;;;;10.99;88.01;101223.69;4994749;28;45270;-39
2024/01/22 02:24:47;;;;;;;;;1.67;1.67;;;;;11.02;87.84;101223.41;4994685;28;45357;-38
2024/01/22 02:27:12;;;;;;;;;2.00;2.00;;;;;11.01;87.63;101218.25;4995074;28;45340;-38
2024/01/22 02:29:37;;;;;;;;;6.00;2.00;;;;;11.02;87.62;101236.72;4994587;28;45441;-40
2024/01/22 02:32:03;;;;;;;;;2.67;1.00;;;;;11.01;87.92;101221.75;4994442;28;45445;-37
2024/01/22 02:34:28;;;;;;;;;3.00;1.33;;;;;11.03;87.63;101226.91;4994793;28;45350;-37
2024/01/22 02:36:54;;;;;;;;;0.67;0.67;;;;;10.97;87.31;101215.00;4994783;28;45494;-38
2024/01/22 02:39:19;;;;;;;;;3.00;1.00;;;;;11.01;87.45;101199.59;4994364;28;46760;-39
2024/01/22 02:41:44;;;;;;;;;2.00;1.67;;;;;11.05;87.66;101191.19;4994056;28;45892;-38
2024/01/22 02:44:10;;;;;;;;;6.00;0.00;;;;;11.07;86.91;101207.03;4994419;28;45532;-40
2024/01/22 02:46:36;;;;;;;;;1.33;0.00;;;;;11.08;86.61;101190.94;4994725;28;45399;-39
2024/01/22 02:49:01;;;;;;;;;1.00;1.00;;;;;11.07;87.04;101175.91;4993306;28;45961;-39
2024/01/22 02:51:26;;;;;;;;;3.00;1.67;;;;;11.10;86.62;101172.16;4994505;28;45463;-39
2024/01/22 02:53:53;;;;;;;;;2.00;1.00;;;;;11.11;86.54;101193.28;4994335;28;45352;-38
2024/01/22 02:56:19;;;;;;;;;1.00;1.00;;;;;11.08;86.47;101168.75;4994379;28;45740;-38
2024/01/22 02:58:44;;;;;;;;;2.00;1.00;;;;;11.12;86.08;101164.84;4994192;28;45323;-38
2024/01/22 03:01:09;;;;;;;;;5.67;2.00;;;;;11.14;85.74;101160.22;4994231;28;45427;-39
2024/01/22 03:03:35;;;;;;;;;1.00;1.00;;;;;11.17;85.96;101159.97;4994436;28;45283;-39
2024/01/22 03:06:00;;;;;;;;;2.00;2.00;;;;;11.13;85.67;101140.75;4993144;28;45339;-39
2024/01/22 03:08:26;;;;;;;;;2.00;1.00;;;;;11.13;85.42;101164.72;4994275;28;45566;-39
2024/01/22 03:10:51;;;;;;;;;1.00;1.00;;;;;11.17;85.52;101160.81;4992864;28;45421;-39
2024/01/22 03:13:16;;;;;;;;;2.00;1.00;;;;;11.17;84.76;101152.81;4994231;28;45325;-39
2024/01/22 03:15:42;;;;;;;;;0.33;0.33;;;;;11.18;84.97;101157.16;4994362;28;45428;-40
2024/01/22 03:18:08;;;;;;;;;0.67;0.67;;;;;11.20;85.09;101168.47;4994150;28;45966;-40
2024/01/22 03:20:33;;;;;;;;;0.67;0.67;;;;;11.13;84.42;101137.25;4993952;28;45415;-40
2024/01/22 03:22:59;;;;;;;;;0.00;0.00;;;;;11.21;84.86;101124.91;4994315;28;45394;-39
2024/01/22 03:25:24;;;;;;;;;1.00;1.00;;;;;11.19;84.27;101121.53;4994094;28;45532;-39
2024/01/22 03:27:49;;;;;;;;;1.00;1.00;;;;;11.22;84.14;101129.25;4994123;28;46491;-39
2024/01/22 03:30:15;;;;;;;;;1.67;1.00;;;;;11.24;84.04;101105.97;4993823;28;45371;-40
2024/01/22 03:32:40;;;;;;;;;1.67;1.00;;;;;11.24;84.31;101118.44;4994243;28;45435;-39
2024/01/22 03:35:06;;;;;;;;;1.00;1.00;;;;;11.20;84.13;101093.09;4992772;28;45543;-40
2024/01/22 03:37:32;;;;;;;;;1.00;1.00;;;;;11.26;84.42;101105.00;5079132;27;47293;-40
2024/01/22 03:39:58;;;;;;;;;2.00;2.00;;;;;11.26;84.39;101116.50;4993881;28;45400;-39
2024/01/22 03:42:23;;;;;;;;;1.67;1.00;;;;;11.21;84.76;101116.09;4993745;28;45283;-40
2024/01/22 03:44:48;;;;;;;;;0.33;0.33;;;;;11.20;84.80;101099.25;4994127;28;45440;-38
2024/01/22 03:47:14;;;;;;;;;1.67;1.00;;;;;11.19;85.16;101102.06;4993743;28;46056;-40
2024/01/22 03:49:39;;;;;;;;;1.00;1.00;;;;;11.21;85.04;101089.47;4993348;28;45372;-40
2024/01/22 03:52:05;;;;;;;;;1.67;1.00;;;;;11.22;84.60;101091.97;4993767;28;45361;-39
2024/01/22 03:54:30;;;;;;;;;2.33;2.33;;;;;11.17;85.00;101082.75;4993755;28;45322;-39
2024/01/22 03:56:55;;;;;;;;;1.00;1.00;;;;;11.22;84.53;101089.31;4993566;28;46039;-40
2024/01/22 03:59:21;;;;;;;;;0.00;0.00;;;;;11.22;84.85;101099.13;4993612;28;45292;-40
2024/01/22 04:01:46;;;;;;;;;2.67;1.00;;;;;11.22;84.39;101096.47;4994517;28;45260;-40
2024/01/22 04:04:12;;;;;;;;;2.00;1.67;;;;;11.22;84.25;101115.09;4996864;28;45389;-39
2024/01/22 04:06:37;;;;;;;;;1.00;1.00;;;;;11.25;84.19;101112.16;4996304;28;46157;-40
2024/01/22 04:09:02;;;;;;;;;1.00;1.00;;;;;11.25;84.05;101066.91;4996424;28;45365;-38
2024/01/22 04:11:28;;;;;;;;;0.67;0.67;;;;;11.31;83.79;101095.59;4996446;28;45529;-40
2024/01/22 04:13:53;;;;;;;;;0.00;0.00;;;;;11.32;84.33;101085.78;5082033;27;45564;-40
2024/01/22 04:16:18;;;;;;;;;3.00;1.00;;;;;11.30;83.94;101063.78;4996283;28;45998;-40
2024/01/22 04:18:44;;;;;;;;;1.00;1.00;;;;;11.35;83.69;101069.53;4996413;28;45373;-39
2024/01/22 04:21:10;;;;;;;;;2.33;1.00;;;;;11.35;83.52;101073.03;4996380;28;45690;-39
2024/01/22 04:23:36;;;;;;;;;0.67;0.33;;;;;11.36;83.63;101072.03;5011581;28;45394;-39
2024/01/22 04:26:03;;;;;;;;;2.67;2.00;;;;;11.38;83.49;101059.44;4995990;28;46329;-39
2024/01/22 04:28:28;;;;;;;;;0.33;0.33;;;;;11.38;83.55;101071.91;4996325;28;45359;-40
2024/01/22 04:30:53;;;;;;;;;0.67;0.67;;;;;11.36;83.66;101072.03;4996406;28;45471;-40
2024/01/22 04:33:19;;;;;;;;;1.00;0.00;;;;;11.43;83.68;101073.16;4996520;28;45282;-40
2024/01/22 04:35:44;;;;;;;;;6.67;2.00;;;;;11.40;83.01;101075.25;4995958;28;45343;-41
2024/01/22 04:38:09;;;;;;;;;1.00;1.00;;;;;11.43;83.29;101093.63;4995934;28;45318;-40
2024/01/22 04:40:35;;;;;;;;;1.33;1.33;;;;;11.46;83.41;101066.66;4996082;27;45328;-40
2024/01/22 04:43:01;;;;;;;;;1.00;1.00;;;;;11.51;83.41;101084.91;4996153;28;45297;-41
2024/01/22 04:45:26;;;;;;;;;1.00;1.00;;;;;11.43;83.45;101064.31;4995711;28;46324;-40
2024/01/22 04:47:52;;;;;;;;;2.67;1.00;;;;;11.52;82.99;101082.09;4995755;28;45473;-39
2024/01/22 04:50:17;;;;;;;;;1.33;1.33;;;;;11.54;83.17;101082.78;4995625;28;45382;-40
2024/01/22 04:52:42;;;;;;;;;1.33;1.33;;;;;11.54;82.83;101092.59;4996108;28;45411;-41
2024/01/22 04:55:08;;;;;;;;;0.00;0.00;;;;;11.51;83.48;101066.28;4995560;28;46321;-40
2024/01/22 04:57:33;;;;;;;;;1.00;1.00;;;;;11.50;83.67;101073.38;4995465;28;45423;-40
2024/01/22 04:59:58;;;;;;;;;2.67;1.67;;;;;11.47;83.40;101058.56;4995880;28;45401;-41
2024/01/22 05:02:27;;;;;;;;;4.00;1.00;;;;;11.45;83.67;101060.50;4995854;28;45449;-40
2024/01/22 05:04:56;;;;;;;;;1.00;1.00;;;;;11.46;83.24;101056.00;4995483;28;46709;-48
2024/01/22 05:07:22;;;;;;;;;1.00;1.00;;;;;11.52;83.72;101052.78;4995402;28;45354;-40
2024/01/22 05:09:47;;;;;;;;;2.00;1.00;;;;;11.51;83.27;101056.44;4995302;28;45437;-40
2024/01/22 05:12:13;;;;;;;;;1.33;0.00;;;;;11.51;83.98;101047.63;4995318;28;45311;-40
2024/01/22 05:14:40;;;;;;;;;1.00;1.00;;;;;11.53;83.85;101061.63;4995243;28;45973;-40
2024/01/22 05:17:08;;;;;;;;;3.00;1.00;;;;;11.55;83.79;101041.84;4995368;28;45378;-40
2024/01/22 05:19:34;;;;;;;;;2.00;2.00;;;;;11.53;83.94;101050.97;4995326;28;45308;-39
2024/01/22 05:21:59;;;;;;;;;5.33;1.00;;;;;11.52;84.26;101042.13;4995584;28;45289;-40
2024/01/22 05:24:24;;;;;;;;;1.00;1.00;;;;;11.46;83.78;101034.72;4995284;28;46275;-40
2024/01/22 05:26:50;;;;;;;;;0.33;0.33;;;;;11.53;84.59;101027.81;4995261;28;45173;-40
2024/01/22 05:29:15;;;;;;;;;2.00;1.00;;;;;11.49;84.78;101029.94;4996885;28;45374;-39
2024/01/22 05:31:40;;;;;;;;;3.00;1.33;;;;;11.54;84.84;101024.16;4995297;28;45365;-40
2024/01/22 05:34:06;;;;;;;;;2.33;1.00;;;;;11.55;84.70;101028.53;4995020;28;45455;-40
2024/01/22 05:36:31;;;;;;;;;1.00;1.00;;;;;11.54;85.21;101026.81;4995324;28;45452;-40
2024/01/22 05:38:56;;;;;;;;;0.00;0.00;;;;;11.53;84.45;101011.00;4995464;28;45354;-40
2024/01/22 05:41:22;;;;;;;;;1.00;1.00;;;;;11.58;84.93;101028.22;4995241;28;45466;-40
2024/01/22 05:43:47;;;;;;;;;1.00;1.00;;;;;11.58;85.25;101030.88;4994815;28;46577;-38
2024/01/22 05:46:12;;;;;;;;;1.00;1.00;;;;;11.57;85.53;101034.53;4995000;28;45276;-40
2024/01/22 05:48:38;;;;;;;;;1.00;1.00;;;;;11.58;86.42;101030.03;4995128;28;45253;-40
2024/01/22 05:51:03;;;;;;;;;1.33;0.67;;;;;11.56;86.06;101024.88;4995378;28;45344;-39
2024/01/22 05:53:28;;;;;;;;;1.00;1.00;;;;;11.56;86.52;100989.41;4994922;28;45439;-40
2024/01/22 05:55:54;;;;;;;;;3.00;1.00;;;;;11.50;86.14;101009.44;4994880;28;45376;-41
2024/01/22 05:58:19;;;;;;;;;1.00;1.00;;;;;11.53;86.96;101006.50;4994571;28;45451;-41
2024/01/22 06:00:45;;;;;;;;;1.00;1.00;;;;;11.54;86.84;101024.16;4995251;28;45335;-40
2024/01/22 06:03:10;;;;;;;;;1.00;1.00;;;;;11.52;86.83;101020.81;4994726;28;45966;-38
2024/01/22 06:05:36;;;;;;;;;0.00;0.00;;;;;11.53;86.64;101014.50;5079893;27;45449;-39
2024/01/22 06:08:03;;;;;;;;;2.00;2.00;;;;;11.54;86.77;101032.16;4994879;28;45334;-39
2024/01/22 06:10:29;;;;;;;;;3.33;1.00;;;;;11.53;87.32;101006.50;4995074;28;45476;-39
2024/01/22 06:12:55;;;;;;;;;3.33;1.00;;;;;11.53;86.89;101003.84;4994367;28;46468;-40
2024/01/22 06:15:20;;;;;;;;;2.00;1.00;;;;;11.42;86.86;100988.91;4994617;28;45603;-38
2024/01/22 06:17:46;;;;;;;;;2.00;2.00;;;;;11.49;87.07;101023.78;4994718;28;45440;-38
2024/01/22 06:20:11;;;;;;;;;4.00;1.33;;;;;11.50;87.67;101009.44;4995022;28;45292;-39
2024/01/22 06:22:36;;;;;;;;;4.00;1.00;;;;;11.47;87.13;101005.28;4994405;27;45783;-41
2024/01/22 06:25:03;;;;;;;;;3.00;1.67;;;;;11.48;87.29;101011.44;4993493;28;45410;-38
2024/01/22 06:27:29;;;;;;;;;2.00;1.00;;;;;11.45;87.66;101017.06;4994565;28;45461;-39
2024/01/22 06:29:56;;;;;;;;;2.00;2.00;;;;;11.45;88.06;101023.22;4994821;28;45347;-39
2024/01/22 06:32:22;;;;;;;;;3.67;2.00;;;;;11.45;87.87;101020.56;4994298;28;45886;-39
2024/01/22 06:34:48;;;;;;;;;1.33;1.00;;;;;11.43;87.75;101022.53;4994180;28;45324;-38
2024/01/22 06:37:15;;;;;;;;;2.00;0.00;;;;;11.39;87.63;101010.50;4994463;28;45312;-39
2024/01/22 06:39:41;;;;;;;;;3.00;1.67;;;;;11.42;87.38;101012.03;4994702;28;45483;-39
2024/01/22 06:42:07;;;;;;;;;0.00;0.00;;;;;11.34;87.62;101011.91;4994274;28;46439;-39
2024/01/22 06:44:32;;;;;;;;;3.00;1.00;;;;;11.38;87.76;101021.31;4994273;28;45379;-37
2024/01/22 06:46:58;;;;;;;;;1.00;1.00;;;;;11.38;87.97;101000.00;4994441;28;45372;-39
2024/01/22 06:49:23;;;;;;;;;2.00;2.00;;;;;11.37;87.41;101017.78;4994530;28;45385;-38
2024/01/22 06:51:49;;;;;;;;;3.00;2.00;;;;;11.35;88.21;101024.25;4993990;28;45405;-39
2024/01/22 06:54:15;;;;;;;;;5.33;2.00;;;;;11.33;88.27;101023.53;4994043;28;45444;-39
2024/01/22 06:56:41;;;;;;;;;1.00;1.00;;;;;11.29;88.31;101006.16;4994377;28;45401;-39
2024/01/22 06:59:06;;;;;;;;;2.00;1.00;;;;;11.27;89.87;101008.16;4979302;28;45574;-39
2024/01/22 07:01:31;;;;;;;;;2.00;2.00;;;;;11.16;89.97;101012.63;4991158;28;45381;-39
2024/01/22 07:03:57;;;;;;;;;1.00;1.00;;;;;11.23;89.34;101016.41;4991269;28;45398;-40
2024/01/22 07:06:22;;;;;;;;;2.67;0.67;;;;;11.19;89.03;101012.38;4991137;28;45407;-40
2024/01/22 07:08:47;;;;;;;;;2.67;2.00;;;;;11.19;90.61;100992.88;4989895;28;45469;-37
2024/01/22 07:11:13;;;;;;;;;4.00;1.00;;;;;11.17;90.30;101021.50;4991361;28;46396;-40
2024/01/22 07:13:38;;;;;;;;;2.33;1.00;;;;;11.15;90.77;101013.63;4991035;28;45418;-40
2024/01/22 07:16:07;;;;;;;;;4.33;2.00;;;;;11.13;91.57;101028.09;4990799;28;45340;-39
2024/01/22 07:18:33;;;;;;;;;1.00;1.00;;;;;11.09;92.26;101008.06;4990845;28;45410;-38
2024/01/22 07:20:59;;;;;;;;;4.67;2.00;;;;;11.11;92.14;101035.38;4990577;28;46107;-38
2024/01/22 07:23:24;;;;;;;;;1.67;1.67;;;;;11.11;92.80;101014.91;4990617;28;45412;-39
2024/01/22 07:25:50;;;;;;;;;1.67;1.67;;;;;11.10;91.91;101005.25;4990479;28;45571;-39
2024/01/22 07:28:15;;;;;;;;;0.00;0.00;;;;;11.14;92.01;101006.63;4992931;28;45504;-40
2024/01/22 07:30:41;;;;;;;;;1.00;1.00;;;;;11.18;92.29;101018.69;4992197;28;45825;-40
2024/01/22 07:33:06;;;;;;;;;4.00;1.33;;;;;11.18;92.21;101026.66;4991783;28;45475;-40
2024/01/22 07:35:31;;;;;;;;;2.33;2.00;;;;;11.18;92.43;101018.69;4992182;28;45421;-40
2024/01/22 07:37:58;;;;;;;;;2.00;1.00;;;;;11.20;92.25;101023.84;4993578;28;45395;-39
2024/01/22 07:40:23;;;;;;;;;2.00;2.00;;;;;11.23;91.95;101013.75;4993123;28;45275;-40
2024/01/22 07:42:49;;;;;;;;;2.67;1.00;;;;;11.29;91.97;101025.66;4992066;28;45428;-39
2024/01/22 07:45:15;;;;;;;;;5.00;1.00;;;;;11.35;91.97;101022.41;4993272;28;45481;-39
2024/01/22 07:47:42;;;;;;;;;2.00;1.00;;;;;11.29;91.88;101017.66;4993419;28;45403;-39
2024/01/22 07:50:12;;;;;;;;;1.00;1.00;;;;;11.40;93.18;101044.13;4992816;28;45706;-38
2024/01/22 07:52:38;;;;;;;;;1.00;1.00;;;;;11.44;92.09;101050.00;4993076;28;45513;-42
2024/01/22 07:55:05;;;;;;;;;1.67;1.67;;;;;11.46;92.87;101053.34;4992639;28;45246;-39
2024/01/22 07:57:31;;;;;;;;;1.00;1.00;;;;;11.46;92.65;101046.22;4992381;28;45544;-39
2024/01/22 07:59:56;;;;;;;;;2.00;1.00;;;;;11.51;92.92;101050.28;4990738;28;47123;-39
2024/01/22 08:02:22;;;;;;;;;2.00;1.00;;;;;11.52;92.35;101073.25;4991190;28;45378;-39
2024/01/22 08:04:48;;;;;;;;;1.00;1.00;;;;;11.56;92.89;101074.66;4991661;28;45300;-41
2024/01/22 08:07:14;;;;;;;;;2.00;2.00;;;;;11.59;92.53;101079.72;4991376;28;45750;-40
2024/01/22 08:09:40;;;;;;;;;2.00;2.00;;;;;11.62;92.40;101088.22;4991112;28;46211;-39
2024/01/22 08:12:06;;;;;;;;;1.00;1.00;;;;;11.56;91.74;101083.50;4990989;28;45379;-40
2024/01/22 08:14:32;;;;;;;;;2.00;1.00;;;;;11.67;92.18;101085.13;4990252;28;45431;-40
2024/01/22 08:16:58;;;;;;;;;1.00;1.00;;;;;11.70;92.32;101091.00;4991790;28;45588;-40
2024/01/22 08:19:23;;;;;;;;;2.00;0.00;;;;;11.72;91.90;101082.88;4991398;28;47432;-40
2024/01/22 08:21:49;;;;;;;;;1.00;1.00;;;;;11.75;92.18;101109.22;4991425;28;45413;-40
2024/01/22 08:24:14;;;;;;;;;1.00;1.00;;;;;11.78;92.19;101119.59;4991434;28;45414;-39
2024/01/22 08:26:40;;;;;;;;;2.00;0.33;;;;;11.81;91.95;101095.34;4991627;28;45347;-40
2024/01/22 08:29:05;;;;;;;;;3.00;0.00;;;;;11.87;91.68;101117.91;4990630;28;47019;-39
2024/01/22 08:31:30;;;;;;;;;2.00;0.00;;;;;11.82;91.37;101099.66;4991290;28;45232;-39
2024/01/22 08:33:56;;;;;;;;;1.00;1.00;;;;;11.96;91.94;101114.38;4991040;28;45448;-40
2024/01/22 08:36:22;;;;;;;;;1.00;1.00;;;;;12.03;91.25;101125.31;4991400;28;45436;-40
2024/01/22 08:38:47;;;;;;;;;1.33;0.00;;;;;12.04;91.32;101135.81;4990862;28;47586;-40
2024/01/22 08:41:13;;;;;;;;;0.67;0.67;;;;;12.05;91.77;101158.84;4991318;28;45876;-41
2024/01/22 08:43:38;;;;;;;;;2.00;1.00;;;;;12.05;91.38;101148.19;4991150;28;45375;-40
2024/01/22 08:46:04;;;;;;;;;1.33;1.33;;;;;12.13;91.43;101147.41;4990907;28;45571;-39
2024/01/22 08:48:30;;;;;;;;;0.33;0.33;;;;;12.16;91.31;101155.13;4992924;28;45832;-38
2024/01/22 08:50:58;;;;;;;;;1.00;0.00;;;;;12.19;91.34;101155.69;4993704;28;45497;-43
2024/01/22 08:53:24;;;;;;;;;0.33;0.33;;;;;12.29;90.83;101154.81;4994307;28;45523;-40
2024/01/22 08:55:50;;;;;;;;;1.67;1.00;;;;;12.30;90.66;101159.97;4993961;28;45331;-40
2024/01/22 08:58:18;;;;;;;;;1.00;1.00;;;;;12.34;91.36;101168.53;4993965;28;45467;-40
2024/01/22 09:00:43;;;;;;;;;2.67;1.00;;;;;12.38;91.34;101149.41;4993547;28;45559;-40
2024/01/22 09:03:08;;;;;;;;;8.00;3.00;;;;;12.52;91.54;101161.44;4993996;28;45433;-39
2024/01/22 09:05:34;;;;;;;;;1.33;1.33;;;;;12.62;90.42;101146.19;4994116;28;45502;-41
2024/01/22 09:08:00;;;;;;;;;6.33;2.00;;;;;12.65;90.26;101164.59;4993246;28;46271;-40
2024/01/22 09:10:26;;;;;;;;;4.00;2.00;;;;;12.60;90.58;101161.53;4993898;28;45467;-40
2024/01/22 09:12:52;;;;;;;;;1.00;1.00;;;;;12.57;90.70;101144.97;4993970;28;45447;-40
2024/01/22 09:15:17;;;;;;;;;1.00;1.00;;;;;12.53;90.82;101157.75;4993810;28;44914;-40
2024/01/22 09:17:43;;;;;;;;;1.00;1.00;;;;;12.53;90.51;101152.44;4993448;28;45444;-38
2024/01/22 09:20:10;;;;;;;;;1.33;1.33;;;;;12.58;90.68;101158.16;5008879;28;45566;-40
2024/01/22 09:22:35;;;;;;;;;2.00;1.33;;;;;12.67;90.45;101175.94;4993622;28;45420;-37
2024/01/22 09:25:00;;;;;;;;;1.00;1.00;;;;;12.74;89.82;101185.03;4993954;28;45503;-38
2024/01/22 09:27:26;;;;;;;;;1.33;1.00;;;;;12.83;89.70;101193.13;4993519;28;46356;-40
2024/01/22 09:29:51;;;;;;;;;2.33;1.00;;;;;12.95;89.11;101203.44;4993661;28;45569;-40
2024/01/22 09:32:18;;;;;;;;;2.00;2.00;;;;;13.11;88.73;101200.09;4993651;28;45388;-40
2024/01/22 09:34:44;;;;;;;;;1.00;1.00;;;;;13.28;88.27;101185.09;4993650;28;46545;-38
2024/01/22 09:37:09;;;;;;;;;7.00;1.67;;;;;13.40;87.19;101189.22;4993106;28;45991;-40
2024/01/22 09:39:35;;;;;;;;;3.00;1.00;;;;;13.67;86.63;101185.56;4993215;28;45492;-40
2024/01/22 09:42:01;;;;;;;;;1.67;1.67;;;;;13.94;85.10;101192.59;5008723;28;45481;-39
2024/01/22 09:44:27;;;;;;;;;1.00;1.00;;;;;14.14;83.62;101192.38;4993563;28;45536;-40
2024/01/22 09:46:53;;;;;;;;;3.33;2.00;;;;;14.38;82.63;101195.19;4993413;28;46186;-40
2024/01/22 09:49:19;;;;;;;;;5.67;1.33;;;;;14.51;82.00;101200.13;4993089;28;45405;-38
2024/01/22 09:51:45;;;;;;;;;4.67;2.00;;;;;14.67;81.23;101194.84;4993272;28;45327;-41
2024/01/22 09:54:18;;;;;;;;;2.00;0.00;;;;;14.87;79.84;101203.41;4993327;28;45424;-40
2024/01/22 09:56:50;;;;;;;;;1.00;1.00;;;;;14.95;79.55;101200.75;5008330;28;46314;-40
2024/01/22 09:59:26;;;;;;;;;5.00;1.00;;;;;14.85;79.29;101200.06;4993211;28;45420;-38
2024/01/22 10:01:52;;;;;;;;;4.00;2.67;;;;;14.77;79.16;101202.72;4992884;28;45517;-39
2024/01/22 10:04:19;;;;;;;;;2.67;0.33;;;;;14.68;78.69;101203.72;4993447;28;45303;-40
2024/01/22 10:06:46;;;;;;;;;5.00;2.33;;;;;14.72;77.72;101213.94;4992876;28;46235;-39
2024/01/22 10:09:15;;;;;;;;;4.67;2.33;;;;;14.81;77.27;101217.47;4992586;28;45397;-38
2024/01/22 10:11:40;;;;;;;;;2.00;2.00;;;;;14.90;77.94;101210.28;4993369;28;45460;-39
2024/01/22 10:14:06;;;;;;;;;3.00;1.00;;;;;14.86;77.63;101214.31;4992870;28;45436;-40
2024/01/22 10:16:31;;;;;;;;;5.67;2.67;;;;;14.87;76.47;101206.09;4992887;28;47097;-38
2024/01/22 10:19:05;;;;;;;;;3.00;1.67;;;;;14.93;76.00;101209.97;4993060;28;45423;-40
2024/01/22 10:21:31;;;;;;;;;4.33;2.00;;;;;15.01;75.48;101206.50;4993270;28;45452;-39
2024/01/22 10:24:00;;;;;;;;;3.33;0.00;;;;;15.13;75.49;101206.00;4993040;28;45298;-40
2024/01/22 10:26:27;;;;;;;;;5.00;2.00;;;;;15.19;73.83;101208.00;4992787;28;46160;-40
2024/01/22 10:28:53;;;;;;;;;3.00;1.00;;;;;15.22;71.91;101215.72;5007995;28;45499;-40
2024/01/22 10:31:18;;;;;;;;;2.33;2.00;;;;;15.18;72.41;101209.03;4992891;28;45261;-39
2024/01/22 10:33:45;;;;;;;;;7.00;3.67;;;;;15.32;72.39;101218.25;4992896;28;45424;-39
2024/01/22 10:36:17;;;;;;;;;5.00;2.00;;;;;15.42;72.85;101220.75;4992686;28;45460;-40
2024/01/22 10:38:48;;;;;;;;;7.33;4.67;;;;;15.25;71.89;101224.44;4992654;28;45425;-40
2024/01/22 10:41:22;;;;;;;;;10.67;3.00;;;;;15.09;70.91;101223.41;4992780;28;45318;-40
2024/01/22 10:43:49;;;;;;;;;5.67;5.67;;;;;14.98;70.71;101219.19;4991643;28;45453;-39
2024/01/22 10:46:15;;;;;;;;;3.00;1.00;;;;;14.84;69.86;101229.72;4991991;28;46240;-40
2024/01/22 10:48:42;;;;;;;;;2.00;2.00;;;;;14.78;70.42;101233.03;4992951;28;45418;-41
2024/01/22 10:51:07;;;;;;;;;5.00;4.00;;;;;14.63;70.67;101241.69;4992245;28;45587;-40
2024/01/22 10:53:33;;;;;;;;;0.67;0.67;;;;;14.53;71.36;101224.88;4992887;28;45464;-40
2024/01/22 10:56:10;;;;;;;;;5.67;2.67;;;;;14.43;72.37;101229.50;4992297;28;46299;-44
2024/01/22 10:58:43;;;;;;;;;9.67;4.00;;;;;14.25;72.39;101231.44;4992320;28;45492;-40
2024/01/22 11:01:16;;;;;;;;;6.00;2.50;;;;;14.20;72.60;101234.59;4992496;28;45464;-40
2024/01/22 11:03:52;;;;;;;;;11.00;5.00;;;;;14.11;72.76;101220.28;4992581;28;45420;-38
2024/01/22 11:06:21;;;;;;;;;2.00;2.00;;;;;14.08;72.56;101228.66;4992051;28;46125;-38
2024/01/22 11:08:53;;;;;;;;;9.00;5.00;;;;;14.02;72.16;101221.25;4992235;28;45414;-39
2024/01/22 11:11:26;;;;;;;;;5.00;2.00;;;;;14.01;71.48;101216.06;4991836;28;45742;-39
2024/01/22 11:13:56;;;;;;;;;3.00;3.00;;;;;14.04;71.48;101216.59;4992358;28;45429;-39
2024/01/22 11:16:22;;;;;;;;;8.67;3.00;;;;;14.03;71.20;101222.06;4991872;28;45513;-40
2024/01/22 11:18:55;;;;;;;;;3.67;2.00;;;;;14.04;71.34;101229.13;4991937;28;45385;-39